Flight Briefing for CPX11

Departure Arrival
Chek Lap Kok International (VHHH)
Click to view FAA NOTAMS
Ted Stevens Anchorage International Airport (PANC)
Click to view FAA NOTAMS
Departure Time Arrival Time
N/A N/A
Aircraft Distance
MD-11SF 4414nm
Departure METAR Arrival METAR
VHHH 152100Z 07005KT 9999 FEW018 SCT025 21/18 Q1018 NOSIG PANC 152053Z 00000KT 10SM FEW002 M11/M17 A3004 RMK AO2 SLP177 FG BNK DSNT NE T11111172 51003
Suggested Route
OCEAN V3 ENVAR M750 MEXIR M750 BUNGU Y81 SYOYU Y809 SPEAR Y808 PEXEL A590 POWAL A590 PINSO A590 HAMND NEELL6


View recent IFR Routes data
Notes



Charts and Procedures

Charts for VHHH
No chart available
Charts for PANC
No chart available

Ventusky Weather